Airfield :
LOGIN :

Register | Disclaimer

   EN    FR    IT 

 










Legend :    VFR   Marginal VFR   IFR   Intensive IFR   Very Intensive IFR
Visi :
Ceiling :
>= 8 km
>= 3000ft
5 to 8 km
1000 to 3000 ft
1500m to 5 km
500 to 1000 ft
800 to 1500m
200 to 500 ft
< 800m
< 200 ft
Symbols :   Thunderstorms  Fog  Heavy snow  Heavy precipitations  Wind > 20 kt
SIGMETs :     Misc.  Thunderstorms  Icing  Turbulence  Mountain Waves  Volcanic Ashes






- Airport Elevation : 622 ft
- IATA code : BRS


EGGD - Bristol Int.

CURRENT METAR :
  • 260850Z AUTO 34009KT 310V020 9999 NCD 09/03 Q1014

EXPIRED METARs :
  • 260820Z AUTO 34009KT 9999 NCD 08/03 Q1014
  • 260750Z AUTO 36007KT 300V040 9999 NCD 08/04 Q1014
  • 260720Z AUTO 34005KT 300V020 9999 NCD 07/03 Q1014
  • 260650Z AUTO 36007KT 320V030 9999 NCD 07/03 Q1013
  • 260620Z AUTO VRB03KT 9999 NCD 06/03 Q1013

TAF TAF EGGD
Valid from the 26 at 06:00 until the 27 at 06:00 UTC


260455Z 2606/2706 32010KT 9999 SCT040
ATIS : +44 1275 473 666



MET'MAP, your aeronautical weather chart ! - Copyright ORBIFLY December 2007 - Disclaimer

ORBIFLY MET'MAP TEAM :

Programming & Development : Alexandra Zaïnal
Concept & original design : Baudouin d'Aumeries
Assistance for programming : Marc-Olivier Méhu
Technical & hardware support : Manuel Goepfert

Contact : metmap@orbifly.com




SOURCES & CREDITS :

   NOAA